sensor_id;sensor_type;location;lat;lon;timestamp;pressure;altitude;pressure_sealevel;temperature;humidity
65546;BME280;52177;55.968;37.498;2023-03-01T00:00:07;98900.25;;;-6.72;59.59
65546;BME280;52177;55.968;37.498;2023-03-01T00:00:38;98898.53;;;-6.72;59.55
65546;BME280;52177;55.968;37.498;2023-03-01T00:01:09;98903.72;;;-6.72;59.54
65546;BME280;52177;55.968;37.498;2023-03-01T00:01:40;98902.03;;;-6.73;59.40
65546;BME280;52177;55.968;37.498;2023-03-01T00:02:10;98894.25;;;-6.73;59.53
65546;BME280;52177;55.968;37.498;2023-03-01T00:02:40;98895.19;;;-6.74;59.32
65546;BME280;52177;55.968;37.498;2023-03-01T00:03:10;98896.09;;;-6.75;59.53
65546;BME280;52177;55.968;37.498;2023-03-01T00:03:41;98896.91;;;-6.74;59.50
65546;BME280;52177;55.968;37.498;2023-03-01T00:04:11;98894.31;;;-6.74;59.64
65546;BME280;52177;55.968;37.498;2023-03-01T00:04:42;98892.59;;;-6.74;59.74
65546;BME280;52177;55.968;37.498;2023-03-01T00:05:12;98900.38;;;-6.74;59.47
65546;BME280;52177;55.968;37.498;2023-03-01T00:05:45;98887.50;;;-6.75;59.36
65546;BME280;52177;55.968;37.498;2023-03-01T00:06:16;98897.84;;;-6.75;59.41
65546;BME280;52177;55.968;37.498;2023-03-01T00:06:46;98891.66;;;-6.73;59.51
65546;BME280;52177;55.968;37.498;2023-03-01T00:07:17;98894.31;;;-6.74;59.40
65546;BME280;52177;55.968;37.498;2023-03-01T00:07:47;98892.66;;;-6.75;59.49
65546;BME280;52177;55.968;37.498;2023-03-01T00:08:17;98888.44;;;-6.76;59.43
65546;BME280;52177;55.968;37.498;2023-03-01T00:08:48;98898.78;;;-6.76;59.57
65546;BME280;52177;55.968;37.498;2023-03-01T00:09:18;98891.91;;;-6.77;59.49
65546;BME280;52177;55.968;37.498;2023-03-01T00:09:48;98889.41;;;-6.79;59.21
65546;BME280;52177;55.968;37.498;2023-03-01T00:10:19;98888.56;;;-6.80;59.60
65546;BME280;52177;55.968;37.498;2023-03-01T00:10:49;98886.00;;;-6.80;59.62
65546;BME280;52177;55.968;37.498;2023-03-01T00:11:21;98884.34;;;-6.81;59.59
65546;BME280;52177;55.968;37.498;2023-03-01T00:11:51;98888.69;;;-6.81;59.81
65546;BME280;52177;55.968;37.498;2023-03-01T00:12:22;98883.59;;;-6.83;59.77
65546;BME280;52177;55.968;37.498;2023-03-01T00:12:52;98881.81;;;-6.82;59.73
65546;BME280;52177;55.968;37.498;2023-03-01T00:13:22;98885.34;;;-6.83;59.91
65546;BME280;52177;55.968;37.498;2023-03-01T00:13:53;98880.16;;;-6.83;60.22
65546;BME280;52177;55.968;37.498;2023-03-01T00:14:24;98879.31;;;-6.84;60.18
65546;BME280;52177;55.968;37.498;2023-03-01T00:14:54;98888.00;;;-6.85;60.21
65546;BME280;52177;55.968;37.498;2023-03-01T00:15:25;98886.34;;;-6.86;60.02
65546;BME280;52177;55.968;37.498;2023-03-01T00:15:55;98891.53;;;-6.86;60.03
65546;BME280;52177;55.968;37.498;2023-03-01T00:16:27;98890.59;;;-6.85;60.29
65546;BME280;52177;55.968;37.498;2023-03-01T00:16:57;98887.00;;;-6.82;60.11
65546;BME280;52177;55.968;37.498;2023-03-01T00:17:28;98884.47;;;-6.84;60.08
65546;BME280;52177;55.968;37.498;2023-03-01T00:17:58;98888.84;;;-6.84;60.03
65546;BME280;52177;55.968;37.498;2023-03-01T00:18:28;98886.34;;;-6.86;59.99
65546;BME280;52177;55.968;37.498;2023-03-01T00:18:59;98883.84;;;-6.87;59.85
65546;BME280;52177;55.968;37.498;2023-03-01T00:19:29;98880.50;;;-6.89;59.89
65546;BME280;52177;55.968;37.498;2023-03-01T00:20:00;98883.00;;;-6.88;59.84
65546;BME280;52177;55.968;37.498;2023-03-01T00:20:30;98880.44;;;-6.88;60.08
65546;BME280;52177;55.968;37.498;2023-03-01T00:21:00;98878.66;;;-6.87;59.90
65546;BME280;52177;55.968;37.498;2023-03-01T00:21:30;98884.66;;;-6.87;59.99
65546;BME280;52177;55.968;37.498;2023-03-01T00:22:01;98881.25;;;-6.87;59.94
65546;BME280;52177;55.968;37.498;2023-03-01T00:22:31;98874.31;;;-6.87;60.07
65546;BME280;52177;55.968;37.498;2023-03-01T00:23:01;98878.59;;;-6.86;60.06
65546;BME280;52177;55.968;37.498;2023-03-01T00:23:33;98883.09;;;-6.89;59.55
65546;BME280;52177;55.968;37.498;2023-03-01T00:24:03;98883.16;;;-6.91;59.43
65546;BME280;52177;55.968;37.498;2023-03-01T00:24:33;98882.25;;;-6.90;59.67
65546;BME280;52177;55.968;37.498;2023-03-01T00:25:04;98885.59;;;-6.88;59.93
65546;BME280;52177;55.968;37.498;2023-03-01T00:25:40;98885.50;;;-6.86;59.85
65546;BME280;52177;55.968;37.498;2023-03-01T00:26:12;98887.06;;;-6.84;59.86
65546;BME280;52177;55.968;37.498;2023-03-01T00:26:42;98882.75;;;-6.83;59.81
65546;BME280;52177;55.968;37.498;2023-03-01T00:27:13;98885.34;;;-6.83;59.71
65546;BME280;52177;55.968;37.498;2023-03-01T00:27:43;98887.00;;;-6.82;59.43
65546;BME280;52177;55.968;37.498;2023-03-01T00:28:13;98880.06;;;-6.82;59.46
65546;BME280;52177;55.968;37.498;2023-03-01T00:28:44;98892.19;;;-6.82;59.33
65546;BME280;52177;55.968;37.498;2023-03-01T00:29:14;98888.75;;;-6.83;59.35
65546;BME280;52177;55.968;37.498;2023-03-01T00:29:45;98891.28;;;-6.81;59.52
65546;BME280;52177;55.968;37.498;2023-03-01T00:30:15;98890.41;;;-6.82;59.55
65546;BME280;52177;55.968;37.498;2023-03-01T00:30:45;98889.50;;;-6.81;59.33
65546;BME280;52177;55.968;37.498;2023-03-01T00:31:18;98891.16;;;-6.80;59.70
65546;BME280;52177;55.968;37.498;2023-03-01T00:31:48;98891.09;;;-6.78;59.65
65546;BME280;52177;55.968;37.498;2023-03-01T00:32:18;98891.91;;;-6.77;59.49
65546;BME280;52177;55.968;37.498;2023-03-01T00:32:49;98892.84;;;-6.78;59.05
65546;BME280;52177;55.968;37.498;2023-03-01T00:33:19;98891.16;;;-6.80;59.12
65546;BME280;52177;55.968;37.498;2023-03-01T00:33:52;98892.84;;;-6.78;59.48
65546;BME280;52177;55.968;37.498;2023-03-01T00:34:23;98891.91;;;-6.77;59.47
65546;BME280;52177;55.968;37.498;2023-03-01T00:34:53;98881.47;;;-6.76;59.53
65546;BME280;52177;55.968;37.498;2023-03-01T00:35:26;98894.44;;;-6.76;59.29
65546;BME280;52177;55.968;37.498;2023-03-01T00:35:59;98890.00;;;-6.74;59.47
65546;BME280;52177;55.968;37.498;2023-03-01T00:36:31;98894.31;;;-6.74;59.11
65546;BME280;52177;55.968;37.498;2023-03-01T00:37:02;98893.44;;;-6.73;59.20
65546;BME280;52177;55.968;37.498;2023-03-01T00:37:35;98896.00;;;-6.73;59.18
65546;BME280;52177;55.968;37.498;2023-03-01T00:38:05;98884.81;;;-6.74;59.44
65546;BME280;52177;55.968;37.498;2023-03-01T00:38:36;98891.75;;;-6.74;59.22
65546;BME280;52177;55.968;37.498;2023-03-01T00:39:09;98890.91;;;-6.75;59.27
65546;BME280;52177;55.968;37.498;2023-03-01T00:39:40;98890.16;;;-6.77;59.34
65546;BME280;52177;55.968;37.498;2023-03-01T00:40:10;98895.34;;;-6.77;59.23
65546;BME280;52177;55.968;37.498;2023-03-01T00:40:40;98891.91;;;-6.77;59.30
65546;BME280;52177;55.968;37.498;2023-03-01T00:41:12;98887.56;;;-6.77;59.53
65546;BME280;52177;55.968;37.498;2023-03-01T00:41:42;98891.09;;;-6.78;59.33
65546;BME280;52177;55.968;37.498;2023-03-01T00:42:13;98890.16;;;-6.77;59.34
65546;BME280;52177;55.968;37.498;2023-03-01T00:42:43;98890.16;;;-6.77;59.19
65546;BME280;52177;55.968;37.498;2023-03-01T00:43:13;98890.25;;;-6.78;59.12
65546;BME280;52177;55.968;37.498;2023-03-01T00:43:44;98891.91;;;-6.77;59.13
65546;BME280;52177;55.968;37.498;2023-03-01T00:44:14;98888.44;;;-6.76;59.43
65546;BME280;52177;55.968;37.498;2023-03-01T00:44:45;98886.66;;;-6.76;59.27
65546;BME280;52177;55.968;37.498;2023-03-01T00:45:15;98897.03;;;-6.76;59.37
65546;BME280;52177;55.968;37.498;2023-03-01T00:45:45;98891.03;;;-6.76;59.28
65546;BME280;52177;55.968;37.498;2023-03-01T00:46:16;98891.09;;;-6.78;59.23
65546;BME280;52177;55.968;37.498;2023-03-01T00:46:47;98893.69;;;-6.78;59.26
65546;BME280;52177;55.968;37.498;2023-03-01T00:47:17;98891.16;;;-6.80;59.31
65546;BME280;52177;55.968;37.498;2023-03-01T00:47:48;98882.50;;;-6.78;59.30
65546;BME280;52177;55.968;37.498;2023-03-01T00:48:18;98883.31;;;-6.78;59.31
65546;BME280;52177;55.968;37.498;2023-03-01T00:48:48;98886.66;;;-6.76;59.33
65546;BME280;52177;55.968;37.498;2023-03-01T00:49:19;98885.84;;;-6.76;59.27
65546;BME280;52177;55.968;37.498;2023-03-01T00:49:49;98881.47;;;-6.76;59.17
65546;BME280;52177;55.968;37.498;2023-03-01T00:50:19;98881.47;;;-6.76;59.19
65546;BME280;52177;55.968;37.498;2023-03-01T00:50:50;98879.72;;;-6.75;59.28
65546;BME280;52177;55.968;37.498;2023-03-01T00:51:24;98881.28;;;-6.73;59.04
65546;BME280;52177;55.968;37.498;2023-03-01T00:51:55;98889.16;;;-6.74;59.07
65546;BME280;52177;55.968;37.498;2023-03-01T00:52:25;98891.75;;;-6.74;59.21
65546;BME280;52177;55.968;37.498;2023-03-01T00:52:55;98887.50;;;-6.75;59.24
65546;BME280;52177;55.968;37.498;2023-03-01T00:53:26;98879.72;;;-6.75;59.25
65546;BME280;52177;55.968;37.498;2023-03-01T00:53:57;98882.31;;;-6.75;59.31
65546;BME280;52177;55.968;37.498;2023-03-01T00:54:28;98879.91;;;-6.78;59.20
65546;BME280;52177;55.968;37.498;2023-03-01T00:54:58;98879.91;;;-6.78;59.35
65546;BME280;52177;55.968;37.498;2023-03-01T00:55:28;98878.13;;;-6.78;59.38
65546;BME280;52177;55.968;37.498;2023-03-01T00:55:59;98884.97;;;-6.77;59.42
65546;BME280;52177;55.968;37.498;2023-03-01T00:56:29;98881.56;;;-6.77;59.32
65546;BME280;52177;55.968;37.498;2023-03-01T00:57:00;98880.72;;;-6.78;59.53
65546;BME280;52177;55.968;37.498;2023-03-01T00:57:30;98877.38;;;-6.80;59.42
65546;BME280;52177;55.968;37.498;2023-03-01T00:58:00;98874.88;;;-6.82;59.27
65546;BME280;52177;55.968;37.498;2023-03-01T00:58:31;98872.28;;;-6.82;59.22
65546;BME280;52177;55.968;37.498;2023-03-01T00:59:01;98875.06;;;-6.85;59.31
65546;BME280;52177;55.968;37.498;2023-03-01T00:59:31;98875.88;;;-6.84;59.38
65546;BME280;52177;55.968;37.498;2023-03-01T01:00:02;98875.06;;;-6.85;59.55
65546;BME280;52177;55.968;37.498;2023-03-01T01:00:34;98878.47;;;-6.84;59.45
65546;BME280;52177;55.968;37.498;2023-03-01T01:01:07;98872.47;;;-6.85;59.49
65546;BME280;52177;55.968;37.498;2023-03-01T01:01:46;98879.31;;;-6.84;59.43
65546;BME280;52177;55.968;37.498;2023-03-01T01:02:17;98877.66;;;-6.85;59.44
65546;BME280;52177;55.968;37.498;2023-03-01T01:02:47;98875.06;;;-6.85;59.50
65546;BME280;52177;55.968;37.498;2023-03-01T01:03:17;98873.22;;;-6.83;59.58
65546;BME280;52177;55.968;37.498;2023-03-01T01:03:48;98874.72;;;-6.78;59.78
65546;BME280;52177;55.968;37.498;2023-03-01T01:04:19;98878.13;;;-6.78;59.65
65546;BME280;52177;55.968;37.498;2023-03-01T01:04:49;98877.31;;;-6.78;59.52
65546;BME280;52177;55.968;37.498;2023-03-01T01:05:19;98873.97;;;-6.81;59.48
65546;BME280;52177;55.968;37.498;2023-03-01T01:05:51;98870.53;;;-6.81;59.62
65546;BME280;52177;55.968;37.498;2023-03-01T01:06:22;98877.47;;;-6.82;59.71
65546;BME280;52177;55.968;37.498;2023-03-01T01:06:53;98874.97;;;-6.83;59.72
65546;BME280;52177;55.968;37.498;2023-03-01T01:07:23;98879.22;;;-6.82;59.77
65546;BME280;52177;55.968;37.498;2023-03-01T01:07:54;98873.28;;;-6.84;59.60
65546;BME280;52177;55.968;37.498;2023-03-01T01:08:24;98875.88;;;-6.84;59.67
65546;BME280;52177;55.968;37.498;2023-03-01T01:08:54;98877.66;;;-6.85;59.73
65546;BME280;52177;55.968;37.498;2023-03-01T01:09:25;98879.41;;;-6.85;59.73
65546;BME280;52177;55.968;37.498;2023-03-01T01:09:55;98877.72;;;-6.86;59.75
65546;BME280;52177;55.968;37.498;2023-03-01T01:10:26;98878.66;;;-6.87;59.59
65546;BME280;52177;55.968;37.498;2023-03-01T01:10:56;98876.81;;;-6.85;59.77
65546;BME280;52177;55.968;37.498;2023-03-01T01:11:26;98878.66;;;-6.87;59.66
65546;BME280;52177;55.968;37.498;2023-03-01T01:11:57;98880.25;;;-6.85;59.88
65546;BME280;52177;55.968;37.498;2023-03-01T01:12:27;98886.16;;;-6.83;59.92
65546;BME280;52177;55.968;37.498;2023-03-01T01:12:58;98886.16;;;-6.83;59.80
65546;BME280;52177;55.968;37.498;2023-03-01T01:13:28;98885.41;;;-6.85;59.70
65546;BME280;52177;55.968;37.498;2023-03-01T01:13:58;98885.59;;;-6.88;59.67
65546;BME280;52177;55.968;37.498;2023-03-01T01:14:29;98886.63;;;-6.90;59.72
65546;BME280;52177;55.968;37.498;2023-03-01T01:14:59;98883.28;;;-6.92;59.83
65546;BME280;52177;55.968;37.498;2023-03-01T01:15:33;98877.41;;;-6.96;59.92
65546;BME280;52177;55.968;37.498;2023-03-01T01:16:03;98885.13;;;-6.94;60.04
65546;BME280;52177;55.968;37.498;2023-03-01T01:16:33;98887.63;;;-6.93;60.14
65546;BME280;52177;55.968;37.498;2023-03-01T01:17:04;98878.16;;;-6.94;60.12
65546;BME280;52177;55.968;37.498;2023-03-01T01:17:34;98886.88;;;-6.95;59.99
65546;BME280;52177;55.968;37.498;2023-03-01T01:18:04;98875.50;;;-6.92;60.02
65546;BME280;52177;55.968;37.498;2023-03-01T01:18:35;98885.03;;;-6.93;60.02
65546;BME280;52177;55.968;37.498;2023-03-01T01:19:05;98884.09;;;-6.92;60.03
65546;BME280;52177;55.968;37.498;2023-03-01T01:19:35;98887.63;;;-6.93;60.10
65546;BME280;52177;55.968;37.498;2023-03-01T01:20:06;98884.19;;;-6.93;60.06
65546;BME280;52177;55.968;37.498;2023-03-01T01:20:36;98880.84;;;-6.95;60.10
65546;BME280;52177;55.968;37.498;2023-03-01T01:21:08;98884.34;;;-6.96;60.15
65546;BME280;52177;55.968;37.498;2023-03-01T01:21:39;98883.53;;;-6.97;60.08
65546;BME280;52177;55.968;37.498;2023-03-01T01:22:12;98883.34;;;-6.94;60.20
65546;BME280;52177;55.968;37.498;2023-03-01T01:22:43;98883.34;;;-6.94;60.25
65546;BME280;52177;55.968;37.498;2023-03-01T01:23:13;98887.69;;;-6.94;60.23
65546;BME280;52177;55.968;37.498;2023-03-01T01:23:44;98886.88;;;-6.95;60.31
65546;BME280;52177;55.968;37.498;2023-03-01T01:24:14;98884.28;;;-6.95;60.13
65546;BME280;52177;55.968;37.498;2023-03-01T01:24:45;98891.19;;;-6.95;60.33
65546;BME280;52177;55.968;37.498;2023-03-01T01:25:15;98885.03;;;-6.93;60.39
65546;BME280;52177;55.968;37.498;2023-03-01T01:25:45;98890.38;;;-6.96;60.24
65546;BME280;52177;55.968;37.498;2023-03-01T01:26:17;98885.28;;;-6.97;60.28
65546;BME280;52177;55.968;37.498;2023-03-01T01:26:48;98887.88;;;-6.97;60.35
65546;BME280;52177;55.968;37.498;2023-03-01T01:27:18;98884.34;;;-6.96;60.47
65546;BME280;52177;55.968;37.498;2023-03-01T01:27:48;98881.84;;;-6.98;60.51
65546;BME280;52177;55.968;37.498;2023-03-01T01:28:18;98882.03;;;-7.01;60.39
65546;BME280;52177;55.968;37.498;2023-03-01T01:28:49;98884.63;;;-7.01;60.48
65546;BME280;52177;55.968;37.498;2023-03-01T01:29:19;98886.47;;;-7.03;60.41
65546;BME280;52177;55.968;37.498;2023-03-01T01:29:49;98887.38;;;-7.04;60.39
65546;BME280;52177;55.968;37.498;2023-03-01T01:30:20;98883.78;;;-7.02;60.65
65546;BME280;52177;55.968;37.498;2023-03-01T01:30:50;98888.97;;;-7.02;60.50
65546;BME280;52177;55.968;37.498;2023-03-01T01:31:20;98887.22;;;-7.01;60.67
65546;BME280;52177;55.968;37.498;2023-03-01T01:31:53;98893.31;;;-7.02;60.52
65546;BME280;52177;55.968;37.498;2023-03-01T01:32:23;98890.63;;;-7.01;60.55
65546;BME280;52177;55.968;37.498;2023-03-01T01:32:53;98889.78;;;-7.01;60.77
65546;BME280;52177;55.968;37.498;2023-03-01T01:33:24;98888.97;;;-7.02;60.65
65546;BME280;52177;55.968;37.498;2023-03-01T01:33:55;98893.31;;;-7.02;60.66
65546;BME280;52177;55.968;37.498;2023-03-01T01:34:25;98895.06;;;-7.03;60.63
65546;BME280;52177;55.968;37.498;2023-03-01T01:34:55;98896.81;;;-7.03;60.62
65546;BME280;52177;55.968;37.498;2023-03-01T01:35:25;98890.88;;;-7.05;60.49
65546;BME280;52177;55.968;37.498;2023-03-01T01:35:56;98891.75;;;-7.05;60.70
65546;BME280;52177;55.968;37.498;2023-03-01T01:36:26;98887.38;;;-7.04;60.74
65546;BME280;52177;55.968;37.498;2023-03-01T01:36:56;98885.56;;;-7.02;60.86
65546;BME280;52177;55.968;37.498;2023-03-01T01:37:26;98884.03;;;-7.06;60.71
65546;BME280;52177;55.968;37.498;2023-03-01T01:38:01;98888.28;;;-7.05;60.73
65546;BME280;52177;55.968;37.498;2023-03-01T01:38:31;98888.47;;;-7.08;60.62
65546;BME280;52177;55.968;37.498;2023-03-01T01:39:02;98884.22;;;-7.09;60.88
65546;BME280;52177;55.968;37.498;2023-03-01T01:39:32;98890.22;;;-7.09;60.99
65546;BME280;52177;55.968;37.498;2023-03-01T01:40:02;98878.88;;;-7.06;60.80
65546;BME280;52177;55.968;37.498;2023-03-01T01:40:42;98881.47;;;-7.06;60.96
65546;BME280;52177;55.968;37.498;2023-03-01T01:41:13;98883.22;;;-7.07;60.90
65546;BME280;52177;55.968;37.498;2023-03-01T01:41:43;98884.03;;;-7.06;60.81
65546;BME280;52177;55.968;37.498;2023-03-01T01:42:15;98884.88;;;-7.06;60.90
65546;BME280;52177;55.968;37.498;2023-03-01T01:42:46;98886.56;;;-7.05;60.96
65546;BME280;52177;55.968;37.498;2023-03-01T01:44:09;98886.81;;;-7.09;60.83
65546;BME280;52177;55.968;37.498;2023-03-01T01:44:40;98886.88;;;-7.11;60.97
65546;BME280;52177;55.968;37.498;2023-03-01T01:46:00;98883.47;;;-7.11;61.03
65546;BME280;52177;55.968;37.498;2023-03-01T01:46:31;98884.38;;;-7.12;61.16
65546;BME280;52177;55.968;37.498;2023-03-01T01:47:06;98880.97;;;-7.13;61.04
65546;BME280;52177;55.968;37.498;2023-03-01T01:47:40;98882.78;;;-7.15;61.16
65546;BME280;52177;55.968;37.498;2023-03-01T01:48:12;98887.16;;;-7.15;61.30
65546;BME280;52177;55.968;37.498;2023-03-01T01:48:45;98885.56;;;-7.18;61.28
65546;BME280;52177;55.968;37.498;2023-03-01T01:49:58;98882.72;;;-7.13;61.27
65546;BME280;52177;55.968;37.498;2023-03-01T01:50:29;98889.75;;;-7.15;61.21
65546;BME280;52177;55.968;37.498;2023-03-01T01:51:15;98889.81;;;-7.17;61.21
65546;BME280;52177;55.968;37.498;2023-03-01T01:51:48;98889.81;;;-7.17;61.26
65546;BME280;52177;55.968;37.498;2023-03-01T01:52:30;98888.97;;;-7.17;61.18
65546;BME280;52177;55.968;37.498;2023-03-01T01:53:01;98888.16;;;-7.18;61.30
65546;BME280;52177;55.968;37.498;2023-03-01T01:53:31;98883.88;;;-7.19;61.46
65546;BME280;52177;55.968;37.498;2023-03-01T01:54:02;98893.41;;;-7.19;61.29
65546;BME280;52177;55.968;37.498;2023-03-01T01:55:07;98886.81;;;-7.25;61.42
65546;BME280;52177;55.968;37.498;2023-03-01T01:55:40;98895.59;;;-7.28;61.51
65546;BME280;52177;55.968;37.498;2023-03-01T01:56:11;98887.91;;;-7.29;61.42
65546;BME280;52177;55.968;37.498;2023-03-01T01:56:42;98895.66;;;-7.29;61.43
65546;BME280;52177;55.968;37.498;2023-03-01T01:57:15;98888.72;;;-7.29;61.56
65546;BME280;52177;55.968;37.498;2023-03-01T01:57:47;98891.31;;;-7.29;61.60
65546;BME280;52177;55.968;37.498;2023-03-01T01:58:19;98889.50;;;-7.27;61.66
65546;BME280;52177;55.968;37.498;2023-03-01T01:58:50;98895.50;;;-7.26;61.39
65546;BME280;52177;55.968;37.498;2023-03-01T01:59:20;98894.66;;;-7.27;61.41
65546;BME280;52177;55.968;37.498;2023-03-01T01:59:55;98895.59;;;-7.28;61.57
65546;BME280;52177;55.968;37.498;2023-03-01T02:00:28;98895.50;;;-7.26;61.45
65546;BME280;52177;55.968;37.498;2023-03-01T02:00:59;98900.66;;;-7.26;61.58
65546;BME280;52177;55.968;37.498;2023-03-01T02:01:31;98891.44;;;-7.30;61.52
65546;BME280;52177;55.968;37.498;2023-03-01T02:02:02;98887.22;;;-7.33;61.53
65546;BME280;52177;55.968;37.498;2023-03-01T02:02:33;98895.91;;;-7.34;61.69
65546;BME280;52177;55.968;37.498;2023-03-01T02:03:04;98896.25;;;-7.40;61.68
65546;BME280;52177;55.968;37.498;2023-03-01T02:03:37;98891.25;;;-7.43;61.72
65546;BME280;52177;55.968;37.498;2023-03-01T02:04:11;98893.75;;;-7.41;61.74
65546;BME280;52177;55.968;37.498;2023-03-01T02:04:42;98893.75;;;-7.41;61.77
65546;BME280;52177;55.968;37.498;2023-03-01T02:05:15;98898.09;;;-7.42;61.77
65546;BME280;52177;55.968;37.498;2023-03-01T02:06:22;98891.25;;;-7.43;61.86
65546;BME280;52177;55.968;37.498;2023-03-01T02:07:03;98896.50;;;-7.45;61.88
65546;BME280;52177;55.968;37.498;2023-03-01T02:07:36;98901.78;;;-7.46;61.85
65546;BME280;52177;55.968;37.498;2023-03-01T02:08:08;98894.00;;;-7.46;61.92
65546;BME280;52177;55.968;37.498;2023-03-01T02:08:40;98906.19;;;-7.48;61.92
65546;BME280;52177;55.968;37.498;2023-03-01T02:09:12;98896.03;;;-7.51;62.02
65546;BME280;52177;55.968;37.498;2023-03-01T02:09:45;98891.16;;;-7.57;62.01
65546;BME280;52177;55.968;37.498;2023-03-01T02:10:15;98887.63;;;-7.56;62.18
65546;BME280;52177;55.968;37.498;2023-03-01T02:10:46;98891.09;;;-7.56;62.08
65546;BME280;52177;55.968;37.498;2023-03-01T02:11:17;98892.75;;;-7.55;62.12
65546;BME280;52177;55.968;37.498;2023-03-01T02:11:48;98911.03;;;-7.58;62.15
65546;BME280;52177;55.968;37.498;2023-03-01T02:12:20;98898.25;;;-7.61;62.30
65546;BME280;52177;55.968;37.498;2023-03-01T02:12:52;98900.09;;;-7.63;62.46
65546;BME280;52177;55.968;37.498;2023-03-01T02:13:23;98900.16;;;-7.65;62.57
65546;BME280;52177;55.968;37.498;2023-03-01T02:13:53;98901.06;;;-7.66;62.41
65546;BME280;52177;55.968;37.498;2023-03-01T02:14:24;98899.41;;;-7.67;62.63
65546;BME280;52177;55.968;37.498;2023-03-01T02:14:54;98899.25;;;-7.64;62.47
65546;BME280;52177;55.968;37.498;2023-03-01T02:15:24;98898.41;;;-7.64;62.48
65546;BME280;52177;55.968;37.498;2023-03-01T02:15:56;98894.94;;;-7.63;62.61
65546;BME280;52177;55.968;37.498;2023-03-01T02:16:26;98907.00;;;-7.64;62.52
65546;BME280;52177;55.968;37.498;2023-03-01T02:16:57;98903.50;;;-7.62;62.45
65546;BME280;52177;55.968;37.498;2023-03-01T02:17:27;98895.75;;;-7.62;62.39
65546;BME280;52177;55.968;37.498;2023-03-01T02:17:57;98904.50;;;-7.65;62.45
65546;BME280;52177;55.968;37.498;2023-03-01T02:18:28;98903.84;;;-7.69;62.56
65546;BME280;52177;55.968;37.498;2023-03-01T02:18:58;98897.00;;;-7.70;62.79
65546;BME280;52177;55.968;37.498;2023-03-01T02:19:31;98894.41;;;-7.70;62.67
65546;BME280;52177;55.968;37.498;2023-03-01T02:20:40;98897.06;;;-7.71;62.77
65546;BME280;52177;55.968;37.498;2023-03-01T02:22:02;98897.25;;;-7.74;62.74
65546;BME280;52177;55.968;37.498;2023-03-01T02:22:37;98893.72;;;-7.73;62.90
65546;BME280;52177;55.968;37.498;2023-03-01T02:23:08;98898.06;;;-7.74;62.89
65546;BME280;52177;55.968;37.498;2023-03-01T02:23:38;98898.91;;;-7.73;62.89
65546;BME280;52177;55.968;37.498;2023-03-01T02:26:19;98897.00;;;-7.70;62.81
65546;BME280;52177;55.968;37.498;2023-03-01T02:26:54;98894.31;;;-7.68;62.75
65546;BME280;52177;55.968;37.498;2023-03-01T02:27:26;98901.34;;;-7.70;62.87
65546;BME280;52177;55.968;37.498;2023-03-01T02:28:05;98900.47;;;-7.71;62.92
65546;BME280;52177;55.968;37.498;2023-03-01T02:28:38;98895.47;;;-7.74;62.95
65546;BME280;52177;55.968;37.498;2023-03-01T02:29:10;98894.56;;;-7.73;62.91
65546;BME280;52177;55.968;37.498;2023-03-01T02:29:40;98893.72;;;-7.73;62.88
65546;BME280;52177;55.968;37.498;2023-03-01T02:30:13;98894.72;;;-7.76;63.07
65546;BME280;52177;55.968;37.498;2023-03-01T02:30:45;98891.56;;;-7.81;63.20
65546;BME280;52177;55.968;37.498;2023-03-01T02:31:35;98893.38;;;-7.83;63.35
65546;BME280;52177;55.968;37.498;2023-03-01T02:32:12;98895.03;;;-7.82;63.25
65546;BME280;52177;55.968;37.498;2023-03-01T02:32:43;98895.91;;;-7.81;63.14
65546;BME280;52177;55.968;37.498;2023-03-01T02:33:14;98901.06;;;-7.81;63.26
65546;BME280;52177;55.968;37.498;2023-03-01T02:33:44;98899.38;;;-7.82;63.27
65546;BME280;52177;55.968;37.498;2023-03-01T02:34:16;98898.56;;;-7.83;63.25
65546;BME280;52177;55.968;37.498;2023-03-01T02:34:47;98896.91;;;-7.84;63.31
65546;BME280;52177;55.968;37.498;2023-03-01T02:35:17;98904.66;;;-7.84;63.32
65546;BME280;52177;55.968;37.498;2023-03-01T02:35:47;98895.13;;;-7.83;63.39
65546;BME280;52177;55.968;37.498;2023-03-01T02:36:31;98901.22;;;-7.85;63.49
65546;BME280;52177;55.968;37.498;2023-03-01T02:37:34;98897.03;;;-7.87;63.49
65546;BME280;52177;55.968;37.498;2023-03-01T02:38:06;98903.06;;;-7.87;63.47
65546;BME280;52177;55.968;37.498;2023-03-01T02:38:37;98896.22;;;-7.88;63.39
65546;BME280;52177;55.968;37.498;2023-03-01T02:39:08;98897.03;;;-7.87;63.56
65546;BME280;52177;55.968;37.498;2023-03-01T02:39:45;98899.63;;;-7.87;63.55
65546;BME280;52177;55.968;37.498;2023-03-01T02:40:18;98903.81;;;-7.85;63.48
65546;BME280;52177;55.968;37.498;2023-03-01T02:40:50;98896.03;;;-7.85;63.46
65546;BME280;52177;55.968;37.498;2023-03-01T02:41:21;98904.66;;;-7.84;63.54
65546;BME280;52177;55.968;37.498;2023-03-01T02:41:52;98902.97;;;-7.85;63.56
65546;BME280;52177;55.968;37.498;2023-03-01T02:42:26;98899.63;;;-7.87;63.74
65546;BME280;52177;55.968;37.498;2023-03-01T02:42:57;98907.47;;;-7.89;63.59
65546;BME280;52177;55.968;37.498;2023-03-01T02:43:29;98896.38;;;-7.91;63.67
65546;BME280;52177;55.968;37.498;2023-03-01T02:44:01;98895.56;;;-7.91;63.66
65546;BME280;52177;55.968;37.498;2023-03-01T02:44:31;98897.22;;;-7.90;63.69
65546;BME280;52177;55.968;37.498;2023-03-01T02:45:02;98904.03;;;-7.89;63.76
65546;BME280;52177;55.968;37.498;2023-03-01T02:45:32;98897.97;;;-7.88;63.67
65546;BME280;52177;55.968;37.498;2023-03-01T02:46:04;98901.38;;;-7.88;63.66
65546;BME280;52177;55.968;37.498;2023-03-01T02:46:41;98904.03;;;-7.89;63.53
65546;BME280;52177;55.968;37.498;2023-03-01T02:47:12;98902.38;;;-7.90;63.54
65546;BME280;52177;55.968;37.498;2023-03-01T02:47:42;98903.22;;;-7.90;63.67
65546;BME280;52177;55.968;37.498;2023-03-01T02:48:12;98904.72;;;-7.86;63.56
65546;BME280;52177;55.968;37.498;2023-03-01T02:48:47;98899.72;;;-7.89;63.86
65546;BME280;52177;55.968;37.498;2023-03-01T02:49:20;98903.97;;;-7.88;63.67
65546;BME280;52177;55.968;37.498;2023-03-01T02:49:50;98903.06;;;-7.87;63.53
65546;BME280;52177;55.968;37.498;2023-03-01T02:51:45;98905.91;;;-7.91;63.63
65546;BME280;52177;55.968;37.498;2023-03-01T02:52:27;98902.44;;;-7.92;63.84
65546;BME280;52177;55.968;37.498;2023-03-01T02:53:23;98904.22;;;-7.92;63.63